Terminal Aerodrome Forecast
Issued by NWS

Home | Current Version | Previous Version | Text Only | Print | Product List | Glossary On
Versions: 1 2 3 4 5 6 7 8 9 10 11 12 13 14 15 16 17
511
FTUS45 KABQ 231130
TAFSAF
TAF
KSAF 231130Z 2312/2412 02006KT P6SM SCT040 BKN090
     FM231600 15005KT P6SM SCT060 SCT150
     FM232000 22008KT P6SM SCT080
     FM232300 28010KT P6SM VCTS BKN080CB
     FM240200 15010KT P6SM VCSH BKN080=

USA.gov is the U.S. government's official web portal to all federal, state and local government web resources and services.